createdAt,value
2018-04-14T00:00:15.781Z,7.34
2018-04-14T00:01:15.785Z,7.24
2018-04-14T00:02:15.797Z,7.35
2018-04-14T00:03:15.803Z,7.47
2018-04-14T00:04:15.811Z,7.62
2018-04-14T00:05:15.817Z,7.59
2018-04-14T00:06:15.834Z,7.58
2018-04-14T00:07:15.834Z,7.69
2018-04-14T00:08:15.845Z,7.67
2018-04-14T00:09:15.850Z,7.62
2018-04-14T00:10:15.859Z,7.53
2018-04-14T00:11:15.892Z,7.38
2018-04-14T00:12:15.882Z,7.45
2018-04-14T00:13:15.889Z,7.40
2018-04-14T00:14:15.894Z,7.38
2018-04-14T00:15:15.906Z,7.35
2018-04-14T00:16:15.907Z,7.23
2018-04-14T00:17:15.917Z,7.24
2018-04-14T00:18:15.929Z,7.12
2018-04-14T00:19:15.933Z,7.12
2018-04-14T00:20:15.944Z,7.04
2018-04-14T00:21:15.951Z,7.24
2018-04-14T00:22:15.958Z,7.42
2018-04-14T00:23:15.971Z,7.42
2018-04-14T00:24:15.981Z,7.45
2018-04-14T00:25:15.984Z,7.44
2018-04-14T00:26:16.011Z,7.42
2018-04-14T00:27:16.000Z,7.47
2018-04-14T00:28:16.007Z,7.45
2018-04-14T00:29:16.015Z,7.44
2018-04-14T00:30:16.032Z,7.45
2018-04-14T00:31:16.031Z,7.42
2018-04-14T00:32:16.043Z,7.34
2018-04-14T00:33:16.051Z,7.27
2018-04-14T00:34:16.055Z,7.32
2018-04-14T00:35:16.074Z,7.24
2018-04-14T00:36:16.072Z,7.31
2018-04-14T00:37:16.082Z,7.27
2018-04-14T00:38:16.089Z,7.23
2018-04-14T00:39:16.099Z,7.22
2018-04-14T00:40:16.110Z,7.23
2018-04-14T00:41:16.125Z,7.13
2018-04-14T00:42:16.121Z,7.01
2018-04-14T00:43:16.129Z,7.13
2018-04-14T00:44:16.134Z,7.12
2018-04-14T00:45:16.144Z,7.04
2018-04-14T00:46:16.152Z,6.99
2018-04-14T00:47:16.166Z,6.90
2018-04-14T00:48:16.170Z,6.97
2018-04-14T00:49:16.177Z,6.97
2018-04-14T00:50:16.185Z,6.95
2018-04-14T00:51:16.192Z,6.87
2018-04-14T00:52:16.200Z,6.97
2018-04-14T00:53:16.217Z,6.99
2018-04-14T00:54:16.215Z,7.04
2018-04-14T00:55:16.223Z,7.08
2018-04-14T00:56:16.234Z,7.04
2018-04-14T00:57:16.243Z,7.08
2018-04-14T00:58:16.249Z,7.02
2018-04-14T00:59:16.263Z,7.09
2018-04-14T01:00:16.268Z,7.07
2018-04-14T01:01:16.275Z,7.05
2018-04-14T01:02:16.283Z,7.02
2018-04-14T01:03:16.287Z,6.97
2018-04-14T01:04:16.299Z,7.04
2018-04-14T01:05:16.312Z,7.04
2018-04-14T01:06:16.316Z,7.08
2018-04-14T01:07:16.324Z,6.90
2018-04-14T01:08:16.332Z,7.02
2018-04-14T01:09:16.341Z,6.87
2018-04-14T01:10:16.345Z,6.79
2018-04-14T01:11:16.366Z,6.80
2018-04-14T01:12:16.365Z,6.71
2018-04-14T01:13:16.373Z,6.76
2018-04-14T01:14:16.385Z,6.81
2018-04-14T01:15:16.532Z,6.87
2018-04-14T01:16:16.394Z,6.86
2018-04-14T01:17:16.407Z,6.83
2018-04-14T01:18:16.413Z,6.87
2018-04-14T01:19:16.419Z,6.84
2018-04-14T01:20:16.426Z,6.87
2018-04-14T01:21:16.440Z,6.68
2018-04-14T01:22:16.442Z,6.66
2018-04-14T01:23:16.454Z,6.50
2018-04-14T01:24:16.469Z,6.50
2018-04-14T01:25:16.468Z,6.51
2018-04-14T01:26:16.477Z,6.51
2018-04-14T01:27:16.483Z,6.56
2018-04-14T01:28:16.490Z,6.56
2018-04-14T01:29:16.499Z,6.61
2018-04-14T01:30:16.514Z,6.50
2018-04-14T01:31:16.517Z,6.63
2018-04-14T01:32:16.544Z,6.50
2018-04-14T01:33:16.533Z,6.63
2018-04-14T01:34:16.540Z,6.63
2018-04-14T01:35:16.547Z,6.61
2018-04-14T01:36:16.562Z,6.71
2018-04-14T01:37:16.560Z,6.68
2018-04-14T01:38:16.569Z,6.62
2018-04-14T01:39:16.578Z,6.76
2018-04-14T01:40:16.585Z,6.69
2018-04-14T01:41:16.603Z,6.63
2018-04-14T01:42:16.612Z,6.62
2018-04-14T01:43:16.610Z,6.68
2018-04-14T01:44:16.617Z,6.61
2018-04-14T01:45:16.625Z,6.63
2018-04-14T01:46:16.632Z,6.65
2018-04-14T01:47:16.640Z,6.50
2018-04-14T01:48:16.658Z,6.46
2018-04-14T01:49:16.656Z,6.50
2018-04-14T01:50:16.668Z,6.56
2018-04-14T01:51:16.673Z,6.59
2018-04-14T01:52:16.680Z,6.62
2018-04-14T01:53:16.688Z,6.61
2018-04-14T01:54:16.700Z,6.48
2018-04-14T01:55:16.704Z,6.58
2018-04-14T01:56:16.712Z,6.54
2018-04-14T01:57:16.720Z,6.54
2018-04-14T01:58:16.726Z,6.41
2018-04-14T01:59:16.733Z,6.48
2018-04-14T02:00:16.764Z,6.48
2018-04-14T02:01:16.752Z,6.40
2018-04-14T02:02:16.759Z,6.36
2018-04-14T02:03:16.766Z,6.36
2018-04-14T02:04:16.771Z,6.30
2018-04-14T02:05:16.781Z,6.38
2018-04-14T02:06:16.794Z,6.43
2018-04-14T02:07:16.797Z,6.50
2018-04-14T02:08:16.803Z,6.53
2018-04-14T02:09:16.822Z,6.61
2018-04-14T02:10:16.817Z,6.62
2018-04-14T02:11:16.823Z,6.62
2018-04-14T02:12:16.842Z,6.51
2018-04-14T02:13:16.843Z,6.66
2018-04-14T02:14:16.851Z,6.56
2018-04-14T02:15:16.859Z,6.50
2018-04-14T02:16:16.865Z,6.50
2018-04-14T02:17:16.872Z,6.43
2018-04-14T02:18:16.889Z,6.56
2018-04-14T02:19:16.887Z,6.46
2018-04-14T02:20:16.897Z,6.46
2018-04-14T02:21:16.903Z,6.43
2018-04-14T02:22:16.910Z,6.44
2018-04-14T02:23:16.918Z,6.46
2018-04-14T02:24:16.934Z,6.41
2018-04-14T02:25:16.933Z,6.35
2018-04-14T02:26:16.942Z,6.22
2018-04-14T02:27:16.948Z,6.19
2018-04-14T02:28:16.960Z,6.30
2018-04-14T02:29:16.966Z,6.28
2018-04-14T02:30:16.971Z,6.30
2018-04-14T02:31:16.982Z,6.28
2018-04-14T02:32:16.995Z,6.33
2018-04-14T02:33:16.998Z,6.19
2018-04-14T02:34:17.002Z,6.07
2018-04-14T02:35:17.012Z,6.11
2018-04-14T02:36:17.022Z,6.14
2018-04-14T02:37:17.028Z,6.25
2018-04-14T02:38:17.040Z,6.26
2018-04-14T02:39:17.047Z,6.25
2018-04-14T02:40:17.049Z,6.25
2018-04-14T02:41:17.059Z,6.29
2018-04-14T02:42:17.063Z,6.25
2018-04-14T02:43:17.071Z,6.18
2018-04-14T02:44:17.079Z,6.19
2018-04-14T02:45:17.101Z,6.11
2018-04-14T02:46:17.094Z,6.10
2018-04-14T02:47:17.103Z,6.07
2018-04-14T02:48:17.125Z,6.13
2018-04-14T02:49:17.121Z,6.22
2018-04-14T02:50:17.125Z,6.16
2018-04-14T02:51:17.131Z,6.14
2018-04-14T02:52:17.188Z,6.14
2018-04-14T02:53:17.173Z,5.98
2018-04-14T02:54:17.156Z,6.01
2018-04-14T02:55:17.165Z,5.93
2018-04-14T02:56:17.169Z,5.98
2018-04-14T02:57:17.182Z,5.96
2018-04-14T02:58:17.187Z,6.00
2018-04-14T02:59:17.196Z,6.04
2018-04-14T03:00:17.201Z,6.00
2018-04-14T03:01:17.210Z,5.93
2018-04-14T03:02:17.214Z,6.00
2018-04-14T03:03:17.224Z,6.00
2018-04-14T03:04:17.231Z,5.98
2018-04-14T03:05:17.251Z,5.98
2018-04-14T03:06:17.248Z,5.95
2018-04-14T03:07:17.255Z,6.00
2018-04-14T03:08:17.262Z,6.04
2018-04-14T03:09:17.271Z,6.06
2018-04-14T03:10:17.279Z,5.93
2018-04-14T03:11:17.299Z,5.91
2018-04-14T03:12:17.292Z,5.91
2018-04-14T03:13:17.298Z,5.91
2018-04-14T03:14:17.303Z,5.92
2018-04-14T03:15:17.312Z,5.85
2018-04-14T03:16:17.321Z,5.89
2018-04-14T03:17:17.342Z,5.91
2018-04-14T03:18:17.335Z,5.82
2018-04-14T03:19:17.341Z,5.70
2018-04-14T03:20:17.354Z,5.70
2018-04-14T03:21:17.362Z,5.59
2018-04-14T03:22:17.364Z,5.66
2018-04-14T03:23:17.378Z,5.68
2018-04-14T03:24:17.381Z,5.70
2018-04-14T03:25:17.388Z,5.78
2018-04-14T03:26:17.393Z,5.78
2018-04-14T03:27:17.401Z,5.85
2018-04-14T03:28:17.413Z,5.83
2018-04-14T03:29:17.423Z,5.81
2018-04-14T03:30:17.425Z,5.77
2018-04-14T03:31:17.444Z,5.77
2018-04-14T03:32:17.439Z,5.77
2018-04-14T03:33:17.446Z,5.78
2018-04-14T03:34:17.455Z,5.75
2018-04-14T03:35:17.466Z,5.71
2018-04-14T03:36:17.469Z,5.60
2018-04-14T03:37:17.482Z,5.59
2018-04-14T03:38:17.481Z,5.74
2018-04-14T03:39:17.489Z,5.73
2018-04-14T03:40:17.499Z,5.68
2018-04-14T03:41:17.513Z,5.67
2018-04-14T03:42:17.515Z,5.55
2018-04-14T03:43:17.521Z,5.49
2018-04-14T03:44:17.530Z,5.50
2018-04-14T03:45:17.533Z,5.43
2018-04-14T03:46:17.542Z,5.45
2018-04-14T03:47:17.559Z,5.49
2018-04-14T03:48:17.557Z,5.57
2018-04-14T03:49:17.564Z,5.46
2018-04-14T03:50:17.570Z,5.59
2018-04-14T03:51:17.578Z,5.63
2018-04-14T03:52:17.584Z,5.52
2018-04-14T03:53:17.594Z,5.49
2018-04-14T03:54:17.598Z,5.27
2018-04-14T03:55:17.608Z,5.31
2018-04-14T03:56:17.615Z,5.38
2018-04-14T03:57:17.625Z,5.43
2018-04-14T03:58:17.630Z,5.46
2018-04-14T03:59:17.639Z,5.49
2018-04-14T04:00:17.644Z,5.45
2018-04-14T04:01:17.652Z,5.53
2018-04-14T04:02:17.660Z,5.49
2018-04-14T04:03:17.670Z,5.59
2018-04-14T04:04:17.677Z,5.56
2018-04-14T04:05:17.687Z,5.50
2018-04-14T04:06:17.686Z,5.56
2018-04-14T04:07:17.694Z,5.48
2018-04-14T04:08:17.703Z,5.49
2018-04-14T04:09:17.738Z,5.49
2018-04-14T04:10:17.719Z,5.46
2018-04-14T04:11:17.723Z,5.57
2018-04-14T04:12:17.740Z,5.59
2018-04-14T04:13:17.741Z,5.56
2018-04-14T04:14:17.747Z,5.57
2018-04-14T04:15:17.757Z,5.75
2018-04-14T04:16:17.762Z,5.64
2018-04-14T04:17:17.768Z,5.74
2018-04-14T04:18:17.781Z,5.70
2018-04-14T04:19:17.783Z,5.66
2018-04-14T04:20:17.789Z,5.60
2018-04-14T04:21:17.797Z,5.55
2018-04-14T04:22:17.803Z,5.40
2018-04-14T04:23:17.812Z,5.46
2018-04-14T04:24:17.829Z,5.57
2018-04-14T04:25:17.827Z,5.48
2018-04-14T04:26:17.832Z,5.52
2018-04-14T04:27:17.838Z,5.55
2018-04-14T04:28:17.847Z,5.50
2018-04-14T04:29:17.859Z,5.50
2018-04-14T04:30:17.859Z,5.48
2018-04-14T04:31:17.874Z,5.55
2018-04-14T04:32:17.877Z,5.48
2018-04-14T04:33:17.882Z,5.59
2018-04-14T04:34:17.896Z,5.52
2018-04-14T04:35:17.898Z,5.53
2018-04-14T04:36:17.903Z,5.50
2018-04-14T04:37:17.919Z,5.56
2018-04-14T04:38:17.918Z,5.49
2018-04-14T04:39:17.925Z,5.50
2018-04-14T04:40:17.936Z,5.48
2018-04-14T04:41:17.939Z,5.41
2018-04-14T04:42:17.946Z,5.52
2018-04-14T04:43:17.960Z,5.49
2018-04-14T04:44:17.972Z,5.52
2018-04-14T04:45:17.970Z,5.49
2018-04-14T04:46:17.976Z,5.50
2018-04-14T04:47:17.984Z,5.43
2018-04-14T04:48:17.993Z,5.48
2018-04-14T04:49:17.997Z,5.49
2018-04-14T04:50:18.014Z,5.46
2018-04-14T04:51:18.011Z,5.50
2018-04-14T04:52:18.022Z,5.55
2018-04-14T04:53:18.027Z,5.52
2018-04-14T04:54:18.035Z,5.56
2018-04-14T04:55:18.044Z,5.46
2018-04-14T04:56:18.059Z,5.40
2018-04-14T04:57:18.058Z,5.43
2018-04-14T04:58:18.067Z,5.49
2018-04-14T04:59:18.073Z,5.41
2018-04-14T05:00:18.075Z,5.45
2018-04-14T05:01:18.088Z,5.45
2018-04-14T05:02:18.097Z,5.34
2018-04-14T05:03:18.098Z,5.45
2018-04-14T05:04:18.113Z,5.37
2018-04-14T05:05:18.113Z,5.43
2018-04-14T05:06:18.119Z,5.46
2018-04-14T05:07:18.131Z,5.55
2018-04-14T05:08:18.136Z,5.52
2018-04-14T05:09:18.142Z,5.31
2018-04-14T05:10:18.151Z,5.32
2018-04-14T05:11:18.161Z,5.37
2018-04-14T05:12:18.164Z,5.41
2018-04-14T05:13:18.188Z,5.43
2018-04-14T05:14:18.185Z,5.38
2018-04-14T05:15:18.187Z,5.41
2018-04-14T05:16:18.194Z,5.38
2018-04-14T05:17:18.207Z,5.38
2018-04-14T05:18:18.207Z,5.50
2018-04-14T05:19:18.213Z,5.56
2018-04-14T05:20:18.227Z,5.64
2018-04-14T05:21:18.229Z,5.59
2018-04-14T05:22:18.234Z,5.64
2018-04-14T05:23:18.243Z,5.68
2018-04-14T05:24:18.250Z,5.70
2018-04-14T05:25:18.258Z,5.73
2018-04-14T05:26:18.268Z,5.75
2018-04-14T05:27:18.270Z,5.86
2018-04-14T05:28:18.279Z,5.78
2018-04-14T05:29:18.287Z,5.74
2018-04-14T05:30:18.294Z,5.92
2018-04-14T05:31:18.303Z,5.91
2018-04-14T05:32:18.323Z,5.92
2018-04-14T05:33:18.317Z,5.92
2018-04-14T05:34:18.320Z,5.91
2018-04-14T05:35:18.330Z,5.85
2018-04-14T05:36:18.336Z,5.78
2018-04-14T05:37:18.347Z,5.74
2018-04-14T05:38:18.358Z,5.71
2018-04-14T05:39:18.358Z,5.82
2018-04-14T05:40:18.366Z,5.83
2018-04-14T05:41:18.374Z,5.77
2018-04-14T05:42:18.382Z,5.81
2018-04-14T05:43:18.408Z,5.67
2018-04-14T05:44:18.400Z,5.56
2018-04-14T05:45:18.407Z,5.57
2018-04-14T05:46:18.411Z,5.52
2018-04-14T05:47:18.415Z,5.43
2018-04-14T05:48:18.423Z,5.43
2018-04-14T05:49:18.430Z,5.45
2018-04-14T05:50:18.445Z,5.45
2018-04-14T05:51:18.445Z,5.56
2018-04-14T05:52:18.453Z,5.48
2018-04-14T05:53:18.461Z,5.55
2018-04-14T05:54:18.468Z,5.55
2018-04-14T05:55:18.475Z,5.55
2018-04-14T05:56:18.491Z,5.67
2018-04-14T05:57:18.489Z,5.68
2018-04-14T05:58:18.497Z,5.78
2018-04-14T05:59:18.504Z,5.73
2018-04-14T06:00:18.515Z,5.74
2018-04-14T06:01:18.531Z,5.74
2018-04-14T06:02:18.542Z,5.82
2018-04-14T06:03:18.533Z,5.89
2018-04-14T06:04:18.543Z,5.88
2018-04-14T06:05:18.552Z,5.91
2018-04-14T06:06:18.558Z,5.93
2018-04-14T06:07:18.563Z,6.03
2018-04-14T06:08:18.580Z,5.92
2018-04-14T06:09:18.579Z,6.00
2018-04-14T06:10:18.588Z,6.01
2018-04-14T06:11:18.596Z,5.98
2018-04-14T06:12:18.616Z,6.06
2018-04-14T06:13:18.608Z,6.07
2018-04-14T06:14:18.627Z,6.18
2018-04-14T06:15:18.626Z,6.11
2018-04-14T06:16:18.632Z,6.30
2018-04-14T06:17:18.643Z,6.22
2018-04-14T06:18:18.647Z,6.25
2018-04-14T06:19:18.655Z,6.28
2018-04-14T06:20:18.673Z,6.38
2018-04-14T06:21:18.670Z,6.40
2018-04-14T06:22:18.764Z,6.36
2018-04-14T06:23:18.686Z,6.48
2018-04-14T06:24:18.694Z,6.56
2018-04-14T06:25:18.702Z,6.62
2018-04-14T06:26:18.714Z,6.47
2018-04-14T06:27:18.716Z,6.54
2018-04-14T06:28:18.745Z,6.58
2018-04-14T06:29:18.735Z,6.68
2018-04-14T06:30:18.745Z,6.69
2018-04-14T06:31:18.748Z,6.79
2018-04-14T06:32:18.770Z,6.87
2018-04-14T06:33:18.764Z,6.84
2018-04-14T06:34:18.772Z,6.86
2018-04-14T06:35:18.780Z,6.95
2018-04-14T06:36:18.787Z,6.98
2018-04-14T06:37:18.795Z,7.01
2018-04-14T06:38:18.812Z,7.02
2018-04-14T06:39:18.816Z,7.02
2018-04-14T06:40:18.819Z,7.04
2018-04-14T06:41:18.832Z,7.12
2018-04-14T06:42:18.835Z,7.15
2018-04-14T06:43:18.844Z,7.23
2018-04-14T06:44:18.860Z,7.22
2018-04-14T06:45:18.875Z,7.20
2018-04-14T06:46:18.866Z,7.27
2018-04-14T06:47:18.875Z,7.37
2018-04-14T06:48:18.884Z,7.42
2018-04-14T06:49:18.895Z,7.45
2018-04-14T06:50:18.904Z,7.56
2018-04-14T06:51:18.905Z,7.63
2018-04-14T06:52:18.914Z,7.69
2018-04-14T06:53:18.922Z,7.78
2018-04-14T06:54:18.930Z,7.79
2018-04-14T06:55:18.938Z,7.85
2018-04-14T06:56:18.962Z,7.82
2018-04-14T06:57:18.957Z,7.92
2018-04-14T06:58:18.964Z,7.85
2018-04-14T06:59:18.973Z,7.93
2018-04-14T07:00:18.991Z,8.00
2018-04-14T07:01:18.990Z,8.04
2018-04-14T07:02:18.999Z,8.04
2018-04-14T07:03:19.009Z,8.02
2018-04-14T07:04:19.028Z,8.12
2018-04-14T07:05:19.021Z,8.25
2018-04-14T07:06:19.032Z,8.37
2018-04-14T07:07:19.037Z,8.36
2018-04-14T07:08:19.062Z,8.54
2018-04-14T07:09:19.053Z,8.62
2018-04-14T07:10:19.062Z,8.57
2018-04-14T07:11:19.072Z,8.62
2018-04-14T07:12:19.081Z,8.71
2018-04-14T07:13:19.088Z,8.66
2018-04-14T07:14:19.093Z,8.83
2018-04-14T07:15:19.108Z,8.79
2018-04-14T07:16:19.115Z,8.86
2018-04-14T07:17:19.122Z,8.93
2018-04-14T07:18:19.127Z,8.97
2018-04-14T07:19:19.139Z,9.05
2018-04-14T07:20:19.155Z,9.04
2018-04-14T07:21:19.154Z,9.15
2018-04-14T07:22:19.163Z,9.28
2018-04-14T07:23:19.171Z,9.40
2018-04-14T07:24:19.299Z,9.52
2018-04-14T07:25:19.188Z,9.63
2018-04-14T07:26:19.196Z,9.56
2018-04-14T07:27:19.216Z,9.70
2018-04-14T07:28:19.219Z,9.70
2018-04-14T07:29:19.222Z,9.76
2018-04-14T07:30:19.232Z,9.76
2018-04-14T07:31:19.240Z,9.83
2018-04-14T07:32:19.301Z,9.91
2018-04-14T07:33:19.257Z,9.88
2018-04-14T07:34:19.277Z,9.97
2018-04-14T07:35:19.276Z,9.89
2018-04-14T07:36:19.283Z,9.88
2018-04-14T07:37:19.294Z,10.00
2018-04-14T07:38:19.301Z,10.00
2018-04-14T07:39:19.398Z,10.06
2018-04-14T07:40:19.325Z,10.01
2018-04-14T07:41:19.326Z,10.01
2018-04-14T07:42:19.336Z,10.06
2018-04-14T07:43:19.347Z,10.18
2018-04-14T07:44:19.356Z,10.15
2018-04-14T07:45:19.367Z,10.24
2018-04-14T07:46:19.380Z,10.25
2018-04-14T07:47:19.386Z,10.46
2018-04-14T07:48:19.389Z,10.53
2018-04-14T07:49:19.398Z,10.58
2018-04-14T07:50:19.407Z,10.71
2018-04-14T07:51:19.418Z,10.77
2018-04-14T07:52:19.425Z,10.92
2018-04-14T07:53:19.439Z,10.95
2018-04-14T07:54:19.442Z,11.01
2018-04-14T07:55:19.457Z,11.03
2018-04-14T07:56:19.460Z,10.95
2018-04-14T07:57:19.473Z,11.07
2018-04-14T07:58:19.480Z,10.99
2018-04-14T07:59:19.496Z,11.14
2018-04-14T08:00:19.509Z,11.32
2018-04-14T08:01:19.543Z,11.36
2018-04-14T08:02:19.524Z,11.44
2018-04-14T08:03:19.530Z,11.43
2018-04-14T08:04:19.537Z,11.34
2018-04-14T08:05:19.549Z,11.49
2018-04-14T08:06:19.565Z,11.46
2018-04-14T08:07:19.564Z,11.53
2018-04-14T08:08:19.578Z,11.65
2018-04-14T08:09:19.588Z,11.70
2018-04-14T08:10:19.596Z,11.71
2018-04-14T08:11:19.601Z,11.77
2018-04-14T08:12:19.617Z,11.85
2018-04-14T08:13:19.620Z,11.87
2018-04-14T08:14:19.631Z,12.08
2018-04-14T08:15:19.638Z,11.96
2018-04-14T08:16:19.655Z,12.09
2018-04-14T08:17:19.661Z,12.19
2018-04-14T08:18:19.681Z,12.19
2018-04-14T08:19:19.680Z,12.06
2018-04-14T08:20:19.691Z,12.08
2018-04-14T08:21:19.719Z,12.05
2018-04-14T08:22:19.708Z,12.15
2018-04-14T08:23:19.718Z,12.19
2018-04-14T08:24:19.727Z,12.27
2018-04-14T08:25:19.740Z,12.31
2018-04-14T08:26:19.745Z,12.34
2018-04-14T08:27:19.763Z,12.34
2018-04-14T08:28:19.765Z,12.41
2018-04-14T08:29:19.789Z,12.52
2018-04-14T08:30:19.783Z,12.56
2018-04-14T08:31:19.792Z,12.54
2018-04-14T08:32:19.799Z,12.56
2018-04-14T08:33:19.823Z,12.66
2018-04-14T08:34:19.821Z,12.63
2018-04-14T08:35:19.834Z,12.57
2018-04-14T08:36:19.843Z,12.70
2018-04-14T08:37:19.878Z,12.66
2018-04-14T08:38:19.862Z,12.71
2018-04-14T08:39:19.868Z,12.75
2018-04-14T08:40:19.880Z,12.70
2018-04-14T08:41:19.900Z,12.84
2018-04-14T08:42:19.966Z,12.85
2018-04-14T08:43:20.596Z,12.88
2018-04-14T08:44:19.922Z,13.04
2018-04-14T08:45:19.945Z,13.09
2018-04-14T08:46:19.934Z,13.15
2018-04-14T08:47:19.973Z,13.36
2018-04-14T08:48:19.954Z,13.54
2018-04-14T08:49:19.974Z,13.58
2018-04-14T08:50:20.002Z,13.65
2018-04-14T08:51:19.990Z,13.59
2018-04-14T08:52:19.997Z,13.59
2018-04-14T08:53:20.009Z,13.61
2018-04-14T08:54:20.016Z,13.44
2018-04-14T08:55:20.023Z,13.46
2018-04-14T08:56:20.095Z,13.55
2018-04-14T08:57:20.051Z,13.62
2018-04-14T08:58:20.055Z,13.59
2018-04-14T08:59:20.076Z,13.59
2018-04-14T09:00:20.078Z,13.62
2018-04-14T09:01:20.089Z,13.62
2018-04-14T09:02:20.096Z,13.63
2018-04-14T09:03:20.115Z,13.70
2018-04-14T09:04:20.118Z,13.84
2018-04-14T09:05:20.132Z,13.77
2018-04-14T09:06:20.137Z,13.96
2018-04-14T09:07:20.149Z,13.98
2018-04-14T09:08:20.164Z,13.96
2018-04-14T09:09:20.171Z,13.92
2018-04-14T09:10:20.189Z,13.89
2018-04-14T09:11:20.192Z,13.84
2018-04-14T09:12:20.200Z,14.01
2018-04-14T09:13:20.213Z,13.98
2018-04-14T09:14:20.225Z,14.09
2018-04-14T09:15:20.231Z,14.10
2018-04-14T09:16:20.244Z,14.10
2018-04-14T09:17:20.254Z,14.27
2018-04-14T09:18:20.268Z,14.20
2018-04-14T09:19:20.277Z,14.35
2018-04-14T09:20:20.296Z,14.38
2018-04-14T09:21:20.300Z,14.39
2018-04-14T09:22:20.304Z,14.46
2018-04-14T09:23:20.316Z,14.54
2018-04-14T09:24:20.329Z,14.68
2018-04-14T09:25:20.345Z,14.57
2018-04-14T09:26:20.348Z,14.61
2018-04-14T09:27:20.359Z,14.65
2018-04-14T09:28:20.371Z,14.65
2018-04-14T09:29:20.381Z,14.68
2018-04-14T09:30:21.125Z,14.71
2018-04-14T09:31:20.401Z,14.68
2018-04-14T09:32:20.453Z,14.72
2018-04-14T09:33:20.427Z,14.80
2018-04-14T09:34:20.435Z,14.84
2018-04-14T09:35:20.447Z,14.86
2018-04-14T09:36:20.455Z,14.75
2018-04-14T09:37:20.471Z,14.87
2018-04-14T09:38:20.479Z,14.84
2018-04-14T09:39:20.496Z,14.88
2018-04-14T09:40:20.505Z,15.01
2018-04-14T09:41:20.513Z,15.03
2018-04-14T09:42:20.525Z,15.19
2018-04-14T09:43:20.536Z,15.19
2018-04-14T09:44:20.545Z,15.24
2018-04-14T09:45:20.557Z,15.30
2018-04-14T09:46:20.571Z,15.35
2018-04-14T09:47:20.594Z,15.41
2018-04-14T09:48:20.595Z,15.43
2018-04-14T09:49:20.603Z,15.46
2018-04-14T09:50:20.611Z,15.63
2018-04-14T09:51:20.628Z,15.68
2018-04-14T09:52:20.635Z,15.70
2018-04-14T09:53:20.650Z,15.72
2018-04-14T09:54:20.657Z,15.61
2018-04-14T09:55:20.670Z,15.72
2018-04-14T09:56:20.683Z,15.68
2018-04-14T09:57:20.693Z,15.75
2018-04-14T09:58:20.703Z,15.78
2018-04-14T09:59:20.711Z,15.79
2018-04-14T10:00:20.740Z,15.78
2018-04-14T10:01:20.737Z,15.86
2018-04-14T10:02:20.752Z,15.86
2018-04-14T10:03:20.862Z,15.97
2018-04-14T10:04:20.772Z,15.96
2018-04-14T10:05:20.968Z,15.86
2018-04-14T10:06:20.794Z,15.93
2018-04-14T10:07:20.807Z,16.06
2018-04-14T10:08:20.828Z,16.26
2018-04-14T10:09:20.832Z,16.35
2018-04-14T10:10:20.864Z,16.41
2018-04-14T10:11:20.865Z,16.49
2018-04-14T10:12:20.863Z,16.45
2018-04-14T10:13:20.875Z,16.38
2018-04-14T10:14:20.888Z,16.37
2018-04-14T10:15:20.898Z,16.34
2018-04-14T10:16:20.917Z,16.38
2018-04-14T10:17:20.923Z,16.40
2018-04-14T10:18:20.932Z,16.48
2018-04-14T10:19:20.943Z,16.41
2018-04-14T10:20:20.956Z,16.38
2018-04-14T10:21:20.971Z,16.49
2018-04-14T10:22:20.986Z,16.49
2018-04-14T10:23:20.994Z,16.45
2018-04-14T10:24:21.010Z,16.55
2018-04-14T10:25:21.017Z,16.48
2018-04-14T10:26:21.026Z,16.58
2018-04-14T10:27:21.041Z,16.73
2018-04-14T10:28:21.053Z,16.74
2018-04-14T10:29:21.073Z,16.86
2018-04-14T10:30:21.074Z,16.99
2018-04-14T10:31:21.088Z,17.08
2018-04-14T10:32:21.165Z,17.08
2018-04-14T10:33:21.112Z,17.28
2018-04-14T10:34:21.122Z,17.29
2018-04-14T10:35:21.137Z,17.55
2018-04-14T10:36:21.158Z,17.70
2018-04-14T10:37:21.166Z,17.85
2018-04-14T10:38:21.179Z,17.94
2018-04-14T10:39:21.183Z,18.02
2018-04-14T10:40:21.198Z,18.04
2018-04-14T10:41:21.209Z,18.07
2018-04-14T10:42:21.226Z,18.19
2018-04-14T10:43:21.235Z,18.24
2018-04-14T10:44:21.258Z,18.18
2018-04-14T10:45:21.263Z,18.22
2018-04-14T10:46:21.274Z,18.25
2018-04-14T10:47:21.302Z,18.25
2018-04-14T10:48:21.300Z,18.47
2018-04-14T10:49:21.315Z,18.52
2018-04-14T10:50:21.325Z,18.67
2018-04-14T10:51:21.338Z,18.86
2018-04-14T10:52:21.356Z,18.90
2018-04-14T10:53:21.376Z,18.87
2018-04-14T10:54:21.381Z,18.91
2018-04-14T10:55:21.392Z,19.13
2018-04-14T10:56:21.405Z,19.28
2018-04-14T10:57:21.418Z,19.36
2018-04-14T10:58:21.429Z,19.60
2018-04-14T10:59:21.450Z,20.13
2018-04-14T11:00:21.458Z,20.33
2018-04-14T11:01:21.482Z,20.69
2018-04-14T11:02:21.490Z,21.23
2018-04-14T11:03:21.502Z,21.81
2018-04-14T11:04:21.514Z,22.23
2018-04-14T11:05:21.539Z,22.68
2018-04-14T11:06:21.547Z,22.74
2018-04-14T11:07:21.562Z,23.14
2018-04-14T11:08:21.580Z,23.05
2018-04-14T11:09:21.597Z,23.32
2018-04-14T11:10:21.612Z,23.68
2018-04-14T11:11:21.646Z,23.98
2018-04-14T11:12:21.650Z,23.38
2018-04-14T11:13:21.669Z,22.72
2018-04-14T11:14:21.683Z,22.16
2018-04-14T11:15:21.707Z,22.13
2018-04-14T11:16:21.720Z,21.78
2018-04-14T11:17:21.738Z,21.69
2018-04-14T11:18:28.929Z,21.56
2018-04-14T11:20:25.810Z,21.69
2018-04-14T11:21:25.800Z,21.82
2018-04-14T11:23:29.841Z,21.85
2018-04-14T11:24:29.844Z,21.74
2018-04-14T11:26:33.883Z,21.97
2018-04-14T11:27:33.873Z,22.23
2018-04-14T11:29:37.896Z,22.31
2018-04-14T11:30:37.907Z,22.09
2018-04-14T11:32:43.174Z,22.14
2018-04-14T11:33:43.168Z,21.88
2018-04-14T11:35:36.147Z,22.07
2018-04-14T11:36:36.134Z,22.29
2018-04-14T11:38:40.177Z,22.22
2018-04-14T11:39:40.186Z,22.16
2018-04-14T11:41:44.232Z,21.99
2018-04-14T11:42:44.226Z,21.76
2018-04-14T11:44:48.244Z,21.53
2018-04-14T11:45:48.255Z,21.35
2018-04-14T11:47:52.284Z,21.46
2018-04-14T11:48:52.277Z,21.53
2018-04-14T11:49:52.296Z,21.53
2018-04-14T11:50:52.307Z,21.82
2018-04-14T11:51:52.321Z,22.09
2018-04-14T11:52:52.339Z,22.16
2018-04-14T11:53:52.351Z,22.13
2018-04-14T11:54:52.368Z,22.25
2018-04-14T11:55:52.384Z,22.19
2018-04-14T11:56:52.397Z,22.25
2018-04-14T11:57:52.415Z,22.39
2018-04-14T11:58:52.431Z,22.47
2018-04-14T11:59:52.444Z,22.57
2018-04-14T12:00:52.776Z,22.68
2018-04-14T12:01:52.757Z,22.82
2018-04-14T12:02:52.488Z,22.94
2018-04-14T12:03:52.502Z,22.96
2018-04-14T12:04:52.519Z,22.92
2018-04-14T12:05:52.533Z,22.96
2018-04-14T12:06:52.545Z,23.12
2018-04-14T12:07:52.562Z,23.32
2018-04-14T12:08:52.582Z,23.64
2018-04-14T12:09:52.629Z,23.89
2018-04-14T12:10:52.607Z,23.94
2018-04-14T12:11:52.628Z,23.87
2018-04-14T12:12:52.638Z,23.62
2018-04-14T12:13:52.682Z,23.43
2018-04-14T12:14:52.667Z,23.50
2018-04-14T12:15:52.688Z,23.64
2018-04-14T12:16:52.697Z,24.13
2018-04-14T12:17:53.442Z,24.54
2018-04-14T12:18:52.730Z,24.75
2018-04-14T12:19:52.743Z,25.05
2018-04-14T12:20:52.764Z,24.45
2018-04-14T12:21:52.772Z,24.52
2018-04-14T12:22:52.799Z,25.05
2018-04-14T12:23:52.801Z,25.15
2018-04-14T12:24:52.823Z,25.54
2018-04-14T12:25:52.837Z,25.75
2018-04-14T12:26:52.850Z,26.12
2018-04-14T12:27:52.864Z,25.72
2018-04-14T12:28:52.877Z,25.82
2018-04-14T12:29:52.894Z,26.29
2018-04-14T12:30:52.911Z,27.05
2018-04-14T12:31:52.928Z,27.29
2018-04-14T12:32:52.944Z,27.06
2018-04-14T12:33:52.957Z,26.74
2018-04-14T12:34:52.988Z,27.84
2018-04-14T12:35:52.991Z,28.44
2018-04-14T12:36:53.029Z,28.51
2018-04-14T12:37:53.024Z,27.67
2018-04-14T12:38:53.041Z,27.82
2018-04-14T12:39:53.057Z,28.51
2018-04-14T12:40:53.076Z,28.58
2018-04-14T12:41:53.164Z,28.13
2018-04-14T12:42:53.127Z,28.23
2018-04-14T12:43:53.137Z,28.78
2018-04-14T12:44:53.155Z,29.22
2018-04-14T12:45:53.173Z,29.47
2018-04-14T12:46:53.232Z,29.38
2018-04-14T12:47:53.214Z,29.79
2018-04-14T12:48:53.236Z,30.43
2018-04-14T12:49:53.255Z,29.74
2018-04-14T12:50:53.281Z,30.43
2018-04-14T12:51:53.310Z,31.01
2018-04-14T12:52:53.327Z,31.64
2018-04-14T12:53:53.347Z,30.49
2018-04-14T12:54:53.368Z,29.07
2018-04-14T12:55:53.391Z,29.23
2018-04-14T12:56:53.416Z,29.81
2018-04-14T12:57:53.445Z,30.50
2018-04-14T12:58:53.465Z,30.40
2018-04-14T12:59:53.487Z,30.67
2018-04-14T13:00:53.511Z,30.91
2018-04-14T13:01:53.535Z,31.61
2018-04-14T13:02:53.753Z,31.58
2018-04-14T13:03:53.817Z,30.96
2018-04-14T13:04:54.949Z,31.27
2018-04-14T13:05:54.438Z,31.64
2018-04-14T13:06:53.662Z,31.65
2018-04-14T13:07:53.695Z,30.93
2018-04-14T13:08:53.714Z,30.80
2018-04-14T13:09:53.737Z,30.43
2018-04-14T13:10:53.770Z,30.03
2018-04-14T13:11:53.795Z,29.38
2018-04-14T13:12:53.813Z,29.86
2018-04-14T13:13:53.840Z,30.37
2018-04-14T13:14:53.864Z,30.91
2018-04-14T13:15:53.893Z,31.50
2018-04-14T13:16:53.922Z,32.00
2018-04-14T13:17:53.952Z,31.82